sensor_id;sensor_type;location;lat;lon;timestamp;pressure;altitude;pressure_sealevel;temperature;humidity
53940;BME280;39850;43.324;21.916;2023-03-15T03:04:06;979.0;;;9.0;43.0
53940;BME280;39850;43.324;21.916;2023-03-15T03:08:43;979.0;;;9.0;43.0
53940;BME280;39850;43.324;21.916;2023-03-15T03:13:20;979.0;;;9.0;43.0
53940;BME280;39850;43.324;21.916;2023-03-15T03:17:56;979.0;;;9.0;43.0
53940;BME280;39850;43.324;21.916;2023-03-15T03:22:33;979.0;;;9.0;43.0
53940;BME280;39850;43.324;21.916;2023-03-15T03:27:10;979.0;;;9.0;43.0
53940;BME280;39850;43.324;21.916;2023-03-15T03:31:47;979.0;;;9.0;43.0
53940;BME280;39850;43.324;21.916;2023-03-15T04:04:00;979.0;;;10.9;39.0
53940;BME280;39850;43.324;21.916;2023-03-15T04:08:36;979.0;;;10.9;39.0
53940;BME280;39850;43.324;21.916;2023-03-15T04:13:13;979.0;;;10.9;39.0
53940;BME280;39850;43.324;21.916;2023-03-15T04:17:51;978.0;;;10.4;39.0
53940;BME280;39850;43.324;21.916;2023-03-15T04:22:27;978.0;;;10.4;39.0
53940;BME280;39850;43.324;21.916;2023-03-15T04:27:04;978.0;;;9.8;40.0
53940;BME280;39850;43.324;21.916;2023-03-15T04:31:41;978.0;;;9.8;40.0
53940;BME280;39850;43.324;21.916;2023-03-15T04:36:17;978.0;;;9.8;40.0
53940;BME280;39850;43.324;21.916;2023-03-15T04:40:54;978.0;;;9.8;40.0
53940;BME280;39850;43.324;21.916;2023-03-15T04:45:32;978.0;;;9.8;40.0
53940;BME280;39850;43.324;21.916;2023-03-15T04:50:11;978.0;;;9.8;40.0
53940;BME280;39850;43.324;21.916;2023-03-15T05:27:03;978.0;;;9.9;41.0
53940;BME280;39850;43.324;21.916;2023-03-15T05:31:39;978.0;;;9.9;41.0
53940;BME280;39850;43.324;21.916;2023-03-15T05:36:16;978.0;;;9.9;41.0
53940;BME280;39850;43.324;21.916;2023-03-15T05:40:53;978.0;;;9.9;41.0
53940;BME280;39850;43.324;21.916;2023-03-15T05:45:29;978.0;;;9.9;41.0
53940;BME280;39850;43.324;21.916;2023-03-15T05:50:09;978.0;;;9.9;41.0
53940;BME280;39850;43.324;21.916;2023-03-15T05:54:45;978.0;;;9.9;40.0
53940;BME280;39850;43.324;21.916;2023-03-15T05:59:22;978.0;;;9.9;40.0
53940;BME280;39850;43.324;21.916;2023-03-15T06:03:59;978.0;;;9.9;40.0
53940;BME280;39850;43.324;21.916;2023-03-15T06:08:35;978.0;;;9.9;40.0
53940;BME280;39850;43.324;21.916;2023-03-15T06:13:11;978.0;;;9.9;40.0
53940;BME280;39850;43.324;21.916;2023-03-15T06:45:24;979.0;;;10.7;40.0
53940;BME280;39850;43.324;21.916;2023-03-15T06:50:02;979.0;;;10.7;40.0
53940;BME280;39850;43.324;21.916;2023-03-15T06:54:38;979.0;;;10.7;40.0
53940;BME280;39850;43.324;21.916;2023-03-15T06:59:14;979.0;;;10.7;40.0
53940;BME280;39850;43.324;21.916;2023-03-15T07:03:50;979.0;;;10.7;40.0
53940;BME280;39850;43.324;21.916;2023-03-15T07:08:27;979.0;;;11.1;40.0
53940;BME280;39850;43.324;21.916;2023-03-15T07:13:03;979.0;;;11.1;40.0
53940;BME280;39850;43.324;21.916;2023-03-15T07:17:40;979.0;;;11.6;39.0
53940;BME280;39850;43.324;21.916;2023-03-15T07:22:17;979.0;;;11.6;39.0
53940;BME280;39850;43.324;21.916;2023-03-15T07:26:54;979.0;;;11.6;39.0
53940;BME280;39850;43.324;21.916;2023-03-15T07:31:31;979.0;;;11.6;39.0
53940;BME280;39850;43.324;21.916;2023-03-15T08:08:24;979.0;;;11.6;48.0
53940;BME280;39850;43.324;21.916;2023-03-15T08:13:00;979.0;;;11.6;48.0
53940;BME280;39850;43.324;21.916;2023-03-15T08:17:40;979.0;;;11.6;48.0
53940;BME280;39850;43.324;21.916;2023-03-15T08:22:16;979.0;;;11.6;48.0
53940;BME280;39850;43.324;21.916;2023-03-15T08:26:52;979.0;;;11.6;48.0
53940;BME280;39850;43.324;21.916;2023-03-15T08:31:30;979.0;;;11.6;48.0
53940;BME280;39850;43.324;21.916;2023-03-15T08:36:07;979.0;;;11.7;47.0
53940;BME280;39850;43.324;21.916;2023-03-15T08:40:44;979.0;;;11.7;47.0
53940;BME280;39850;43.324;21.916;2023-03-15T08:45:23;979.0;;;11.8;48.0
53940;BME280;39850;43.324;21.916;2023-03-15T08:50:01;979.0;;;11.8;48.0
53940;BME280;39850;43.324;21.916;2023-03-15T09:26:53;979.0;;;10.8;60.0
53940;BME280;39850;43.324;21.916;2023-03-15T09:31:31;979.0;;;10.8;60.0
53940;BME280;39850;43.324;21.916;2023-03-15T09:36:08;979.0;;;10.8;61.0
53940;BME280;39850;43.324;21.916;2023-03-15T09:40:46;979.0;;;10.8;61.0
53940;BME280;39850;43.324;21.916;2023-03-15T09:46:04;979.0;;;10.8;60.0
53940;BME280;39850;43.324;21.916;2023-03-15T09:50:59;979.0;;;10.8;60.0
53940;BME280;39850;43.324;21.916;2023-03-15T09:55:41;979.0;;;10.8;60.0
53940;BME280;39850;43.324;21.916;2023-03-15T10:00:41;979.0;;;10.8;60.0
53940;BME280;39850;43.324;21.916;2023-03-15T10:05:44;979.0;;;10.7;59.0
53940;BME280;39850;43.324;21.916;2023-03-15T10:10:48;979.0;;;10.7;59.0
53940;BME280;39850;43.324;21.916;2023-03-15T10:45:38;979.0;;;13.5;58.0
53940;BME280;39850;43.324;21.916;2023-03-15T10:50:32;979.0;;;13.5;58.0
53940;BME280;39850;43.324;21.916;2023-03-15T10:55:33;979.0;;;13.1;58.0
53940;BME280;39850;43.324;21.916;2023-03-15T11:00:34;979.0;;;13.1;58.0
53940;BME280;39850;43.324;21.916;2023-03-15T11:05:19;979.0;;;12.7;58.0
53940;BME280;39850;43.324;21.916;2023-03-15T11:10:07;979.0;;;12.7;58.0
53940;BME280;39850;43.324;21.916;2023-03-15T11:14:57;979.0;;;12.7;58.0
53940;BME280;39850;43.324;21.916;2023-03-15T11:19:55;979.0;;;12.6;58.0
53940;BME280;39850;43.324;21.916;2023-03-15T11:24:33;979.0;;;12.6;58.0
53940;BME280;39850;43.324;21.916;2023-03-15T11:29:28;979.0;;;12.6;58.0
53940;BME280;39850;43.324;21.916;2023-03-15T11:34:32;979.0;;;12.6;58.0
53940;BME280;39850;43.324;21.916;2023-03-15T12:08:48;979.0;;;12.7;59.0
53940;BME280;39850;43.324;21.916;2023-03-15T12:13:31;979.0;;;12.7;59.0
53940;BME280;39850;43.324;21.916;2023-03-15T12:18:28;979.0;;;12.7;59.0
53940;BME280;39850;43.324;21.916;2023-03-15T12:23:43;979.0;;;12.7;59.0
53940;BME280;39850;43.324;21.916;2023-03-15T12:28:34;979.0;;;12.7;58.0
53940;BME280;39850;43.324;21.916;2023-03-15T12:33:21;979.0;;;12.7;58.0
53940;BME280;39850;43.324;21.916;2023-03-15T12:37:59;979.0;;;12.7;58.0
53940;BME280;39850;43.324;21.916;2023-03-15T12:43:01;979.0;;;12.7;58.0
53940;BME280;39850;43.324;21.916;2023-03-15T12:48:20;979.0;;;12.7;58.0
53940;BME280;39850;43.324;21.916;2023-03-15T12:53:12;979.0;;;12.7;58.0
53940;BME280;39850;43.324;21.916;2023-03-15T13:28:12;979.0;;;12.2;59.0
53940;BME280;39850;43.324;21.916;2023-03-15T13:33:23;979.0;;;12.2;59.0
53940;BME280;39850;43.324;21.916;2023-03-15T13:38:30;979.0;;;11.9;61.0
53940;BME280;39850;43.324;21.916;2023-03-15T13:43:11;979.0;;;11.9;61.0
53940;BME280;39850;43.324;21.916;2023-03-15T13:47:48;979.0;;;11.6;62.0
53940;BME280;39850;43.324;21.916;2023-03-15T13:52:24;979.0;;;11.6;62.0
53940;BME280;39850;43.324;21.916;2023-03-15T13:57:14;979.0;;;11.6;64.0
53940;BME280;39850;43.324;21.916;2023-03-15T14:01:53;979.0;;;11.6;64.0
53940;BME280;39850;43.324;21.916;2023-03-15T14:06:31;979.0;;;11.6;67.0
53940;BME280;39850;43.324;21.916;2023-03-15T14:11:34;979.0;;;11.6;67.0
53940;BME280;39850;43.324;21.916;2023-03-15T14:58:58;980.0;;;10.9;76.0
53940;BME280;39850;43.324;21.916;2023-03-15T15:03:44;980.0;;;10.9;76.0
53940;BME280;39850;43.324;21.916;2023-03-15T15:08:22;980.0;;;10.9;77.0
53940;BME280;39850;43.324;21.916;2023-03-15T15:12:58;980.0;;;10.9;77.0
53940;BME280;39850;43.324;21.916;2023-03-15T15:17:34;980.0;;;10.9;77.0
53940;BME280;39850;43.324;21.916;2023-03-15T15:22:11;980.0;;;10.9;77.0
53940;BME280;39850;43.324;21.916;2023-03-15T15:26:47;980.0;;;10.9;77.0
53940;BME280;39850;43.324;21.916;2023-03-15T15:31:29;980.0;;;10.9;77.0
53940;BME280;39850;43.324;21.916;2023-03-15T16:09:12;981.0;;;6.3;93.0
53940;BME280;39850;43.324;21.916;2023-03-15T16:13:52;981.0;;;6.3;93.0
53940;BME280;39850;43.324;21.916;2023-03-15T16:18:29;981.0;;;6.8;91.0
53940;BME280;39850;43.324;21.916;2023-03-15T16:23:13;981.0;;;6.8;91.0
53940;BME280;39850;43.324;21.916;2023-03-15T16:27:56;981.0;;;7.3;90.0
53940;BME280;39850;43.324;21.916;2023-03-15T16:32:32;981.0;;;7.3;90.0
53940;BME280;39850;43.324;21.916;2023-03-15T16:37:19;981.0;;;7.3;88.0
53940;BME280;39850;43.324;21.916;2023-03-15T16:41:57;981.0;;;7.3;88.0
53940;BME280;39850;43.324;21.916;2023-03-15T16:46:33;981.0;;;7.3;87.0
53940;BME280;39850;43.324;21.916;2023-03-15T16:51:15;981.0;;;7.3;87.0
53940;BME280;39850;43.324;21.916;2023-03-15T16:55:52;981.0;;;7.3;87.0
53940;BME280;39850;43.324;21.916;2023-03-15T17:28:28;982.0;;;7.3;79.0
53940;BME280;39850;43.324;21.916;2023-03-15T17:33:06;982.0;;;7.3;79.0
53940;BME280;39850;43.324;21.916;2023-03-15T17:37:43;982.0;;;7.3;79.0
53940;BME280;39850;43.324;21.916;2023-03-15T17:42:20;982.0;;;7.3;79.0
53940;BME280;39850;43.324;21.916;2023-03-15T17:46:56;982.0;;;7.3;80.0
53940;BME280;39850;43.324;21.916;2023-03-15T17:51:36;982.0;;;7.3;80.0
53940;BME280;39850;43.324;21.916;2023-03-15T17:56:13;982.0;;;7.3;80.0
53940;BME280;39850;43.324;21.916;2023-03-15T18:00:53;983.0;;;7.3;80.0
53940;BME280;39850;43.324;21.916;2023-03-15T18:05:30;983.0;;;7.3;80.0
53940;BME280;39850;43.324;21.916;2023-03-15T18:10:14;983.0;;;7.3;80.0
53940;BME280;39850;43.324;21.916;2023-03-15T18:14:53;983.0;;;7.3;80.0
53940;BME280;39850;43.324;21.916;2023-03-15T19:01:09;984.0;;;6.4;82.0
53940;BME280;39850;43.324;21.916;2023-03-15T19:05:45;984.0;;;6.4;82.0
53940;BME280;39850;43.324;21.916;2023-03-15T19:10:25;984.0;;;6.4;82.0
53940;BME280;39850;43.324;21.916;2023-03-15T19:15:04;984.0;;;6.4;82.0
53940;BME280;39850;43.324;21.916;2023-03-15T19:19:40;984.0;;;6.4;82.0
53940;BME280;39850;43.324;21.916;2023-03-15T19:24:17;984.0;;;6.4;82.0
53940;BME280;39850;43.324;21.916;2023-03-15T19:28:53;984.0;;;6.4;81.0
53940;BME280;39850;43.324;21.916;2023-03-15T19:33:29;984.0;;;6.4;81.0
53940;BME280;39850;43.324;21.916;2023-03-15T20:19:33;985.0;;;5.4;82.0
53940;BME280;39850;43.324;21.916;2023-03-15T20:24:09;985.0;;;5.4;82.0
53940;BME280;39850;43.324;21.916;2023-03-15T20:28:45;985.0;;;5.4;82.0
53940;BME280;39850;43.324;21.916;2023-03-15T20:33:22;985.0;;;5.4;82.0
53940;BME280;39850;43.324;21.916;2023-03-15T20:37:59;985.0;;;5.4;82.0
53940;BME280;39850;43.324;21.916;2023-03-15T20:42:36;985.0;;;5.4;82.0
53940;BME280;39850;43.324;21.916;2023-03-15T21:38:05;986.0;;;5.5;83.0
53940;BME280;39850;43.324;21.916;2023-03-15T21:42:41;986.0;;;5.5;83.0
53940;BME280;39850;43.324;21.916;2023-03-15T21:47:18;986.0;;;5.2;83.0
53940;BME280;39850;43.324;21.916;2023-03-15T21:51:54;986.0;;;5.2;83.0
53940;BME280;39850;43.324;21.916;2023-03-15T21:56:30;986.0;;;5.2;83.0
53940;BME280;39850;43.324;21.916;2023-03-15T22:01:09;986.0;;;5.2;83.0
53940;BME280;39850;43.324;21.916;2023-03-15T22:05:46;986.0;;;5.2;83.0
53940;BME280;39850;43.324;21.916;2023-03-15T22:10:22;986.0;;;4.9;84.0
53940;BME280;39850;43.324;21.916;2023-03-15T22:14:58;986.0;;;4.9;84.0
53940;BME280;39850;43.324;21.916;2023-03-15T23:01:02;987.0;;;4.5;86.0
53940;BME280;39850;43.324;21.916;2023-03-15T23:05:39;987.0;;;4.5;86.0
53940;BME280;39850;43.324;21.916;2023-03-15T23:10:15;987.0;;;4.5;85.0
53940;BME280;39850;43.324;21.916;2023-03-15T23:14:52;987.0;;;4.5;85.0
53940;BME280;39850;43.324;21.916;2023-03-15T23:19:29;987.0;;;4.5;85.0
53940;BME280;39850;43.324;21.916;2023-03-15T23:24:08;987.0;;;4.5;85.0
53940;BME280;39850;43.324;21.916;2023-03-15T23:28:44;987.0;;;4.5;85.0
53940;BME280;39850;43.324;21.916;2023-03-15T23:33:21;987.0;;;4.5;85.0
